sensor_id;sensor_type;location;lat;lon;timestamp;P1;durP1;ratioP1;P2;durP2;ratioP2
37771;SDS011;23610;59.380;24.642;2023-04-19T00:02:24;0.50;;;0.50;;
37771;SDS011;23610;59.380;24.642;2023-04-19T00:07:26;0.80;;;0.75;;
37771;SDS011;23610;59.380;24.642;2023-04-19T00:12:29;2.58;;;1.20;;
37771;SDS011;23610;59.380;24.642;2023-04-19T00:17:32;2.28;;;1.05;;
37771;SDS011;23610;59.380;24.642;2023-04-19T00:22:35;1.75;;;1.10;;
37771;SDS011;23610;59.380;24.642;2023-04-19T00:27:38;0.82;;;0.63;;
37771;SDS011;23610;59.380;24.642;2023-04-19T00:32:40;2.97;;;1.30;;
37771;SDS011;23610;59.380;24.642;2023-04-19T00:37:43;2.63;;;0.98;;
37771;SDS011;23610;59.380;24.642;2023-04-19T00:42:47;2.13;;;0.70;;
37771;SDS011;23610;59.380;24.642;2023-04-19T00:47:50;1.38;;;1.27;;
37771;SDS011;23610;59.380;24.642;2023-04-19T00:52:54;2.13;;;0.82;;
37771;SDS011;23610;59.380;24.642;2023-04-19T00:57:58;0.65;;;0.65;;
37771;SDS011;23610;59.380;24.642;2023-04-19T01:03:01;1.33;;;0.77;;
37771;SDS011;23610;59.380;24.642;2023-04-19T01:08:04;0.95;;;0.80;;
37771;SDS011;23610;59.380;24.642;2023-04-19T01:13:08;2.22;;;0.88;;
37771;SDS011;23610;59.380;24.642;2023-04-19T01:18:11;5.28;;;0.90;;
37771;SDS011;23610;59.380;24.642;2023-04-19T01:23:16;2.30;;;0.85;;
37771;SDS011;23610;59.380;24.642;2023-04-19T01:28:18;6.20;;;1.10;;
37771;SDS011;23610;59.380;24.642;2023-04-19T01:33:23;1.13;;;0.93;;
37771;SDS011;23610;59.380;24.642;2023-04-19T01:38:26;1.10;;;0.82;;
37771;SDS011;23610;59.380;24.642;2023-04-19T01:43:28;1.95;;;1.13;;
37771;SDS011;23610;59.380;24.642;2023-04-19T01:48:31;1.05;;;0.82;;
37771;SDS011;23610;59.380;24.642;2023-04-19T01:53:33;1.25;;;1.13;;
37771;SDS011;23610;59.380;24.642;2023-04-19T01:58:36;1.98;;;0.70;;
37771;SDS011;23610;59.380;24.642;2023-04-19T02:03:39;1.50;;;0.70;;
37771;SDS011;23610;59.380;24.642;2023-04-19T02:08:41;1.73;;;0.90;;
37771;SDS011;23610;59.380;24.642;2023-04-19T02:13:44;4.03;;;1.23;;
37771;SDS011;23610;59.380;24.642;2023-04-19T02:18:47;3.17;;;0.90;;
37771;SDS011;23610;59.380;24.642;2023-04-19T02:23:51;6.60;;;1.10;;
37771;SDS011;23610;59.380;24.642;2023-04-19T02:28:54;3.97;;;1.10;;
37771;SDS011;23610;59.380;24.642;2023-04-19T02:33:57;0.90;;;0.80;;
37771;SDS011;23610;59.380;24.642;2023-04-19T02:39:00;6.25;;;1.55;;
37771;SDS011;23610;59.380;24.642;2023-04-19T02:44:03;4.30;;;1.05;;
37771;SDS011;23610;59.380;24.642;2023-04-19T02:49:07;2.05;;;0.95;;
37771;SDS011;23610;59.380;24.642;2023-04-19T02:54:10;0.70;;;0.70;;
37771;SDS011;23610;59.380;24.642;2023-04-19T02:59:16;3.25;;;0.90;;
37771;SDS011;23610;59.380;24.642;2023-04-19T03:04:19;3.08;;;1.20;;
37771;SDS011;23610;59.380;24.642;2023-04-19T03:09:23;3.50;;;1.00;;
37771;SDS011;23610;59.380;24.642;2023-04-19T03:14:25;0.90;;;0.90;;
37771;SDS011;23610;59.380;24.642;2023-04-19T03:19:28;2.42;;;1.15;;
37771;SDS011;23610;59.380;24.642;2023-04-19T03:24:32;3.50;;;1.00;;
37771;SDS011;23610;59.380;24.642;2023-04-19T03:29:49;1.15;;;0.98;;
37771;SDS011;23610;59.380;24.642;2023-04-19T03:34:53;1.60;;;0.98;;
37771;SDS011;23610;59.380;24.642;2023-04-19T03:39:56;2.53;;;1.10;;
37771;SDS011;23610;59.380;24.642;2023-04-19T03:45:05;3.95;;;1.17;;
37771;SDS011;23610;59.380;24.642;2023-04-19T03:50:13;1.85;;;1.45;;
37771;SDS011;23610;59.380;24.642;2023-04-19T03:55:20;4.10;;;0.88;;
37771;SDS011;23610;59.380;24.642;2023-04-19T04:00:23;3.30;;;1.02;;
37771;SDS011;23610;59.380;24.642;2023-04-19T04:05:31;1.20;;;0.85;;
37771;SDS011;23610;59.380;24.642;2023-04-19T04:10:34;2.53;;;0.93;;
37771;SDS011;23610;59.380;24.642;2023-04-19T04:15:37;6.28;;;1.10;;
37771;SDS011;23610;59.380;24.642;2023-04-19T04:20:42;8.95;;;1.58;;
37771;SDS011;23610;59.380;24.642;2023-04-19T04:25:46;2.83;;;1.35;;
37771;SDS011;23610;59.380;24.642;2023-04-19T04:30:48;2.80;;;1.60;;
37771;SDS011;23610;59.380;24.642;2023-04-19T04:35:53;1.60;;;1.50;;
37771;SDS011;23610;59.380;24.642;2023-04-19T04:41:00;3.67;;;1.20;;
37771;SDS011;23610;59.380;24.642;2023-04-19T04:46:02;8.15;;;2.08;;
37771;SDS011;23610;59.380;24.642;2023-04-19T04:51:11;3.45;;;3.15;;
37771;SDS011;23610;59.380;24.642;2023-04-19T04:56:16;6.13;;;1.30;;
37771;SDS011;23610;59.380;24.642;2023-04-19T05:01:20;3.55;;;1.95;;
37771;SDS011;23610;59.380;24.642;2023-04-19T05:06:25;2.88;;;1.48;;
37771;SDS011;23610;59.380;24.642;2023-04-19T05:11:28;1.67;;;1.10;;
37771;SDS011;23610;59.380;24.642;2023-04-19T05:16:32;6.90;;;1.55;;
37771;SDS011;23610;59.380;24.642;2023-04-19T05:21:36;3.17;;;1.33;;
37771;SDS011;23610;59.380;24.642;2023-04-19T05:26:41;2.80;;;1.02;;
37771;SDS011;23610;59.380;24.642;2023-04-19T05:31:45;1.05;;;0.68;;
37771;SDS011;23610;59.380;24.642;2023-04-19T05:36:55;6.72;;;1.05;;
37771;SDS011;23610;59.380;24.642;2023-04-19T05:41:58;2.53;;;1.17;;
37771;SDS011;23610;59.380;24.642;2023-04-19T05:47:01;3.20;;;1.42;;
37771;SDS011;23610;59.380;24.642;2023-04-19T05:52:27;4.60;;;2.00;;
37771;SDS011;23610;59.380;24.642;2023-04-19T05:57:32;11.93;;;1.10;;
37771;SDS011;23610;59.380;24.642;2023-04-19T06:02:35;4.32;;;1.10;;
37771;SDS011;23610;59.380;24.642;2023-04-19T06:07:39;2.13;;;1.05;;
37771;SDS011;23610;59.380;24.642;2023-04-19T06:12:55;7.88;;;1.45;;
37771;SDS011;23610;59.380;24.642;2023-04-19T06:17:58;7.75;;;1.48;;
37771;SDS011;23610;59.380;24.642;2023-04-19T06:23:00;10.10;;;1.17;;
37771;SDS011;23610;59.380;24.642;2023-04-19T06:28:03;6.13;;;1.42;;
37771;SDS011;23610;59.380;24.642;2023-04-19T06:33:06;4.05;;;1.38;;
37771;SDS011;23610;59.380;24.642;2023-04-19T06:38:08;4.35;;;1.17;;
37771;SDS011;23610;59.380;24.642;2023-04-19T06:43:11;2.03;;;1.48;;
37771;SDS011;23610;59.380;24.642;2023-04-19T06:48:13;5.85;;;1.10;;
37771;SDS011;23610;59.380;24.642;2023-04-19T06:53:16;4.35;;;1.33;;
37771;SDS011;23610;59.380;24.642;2023-04-19T06:58:18;6.75;;;1.30;;
37771;SDS011;23610;59.380;24.642;2023-04-19T07:03:21;5.95;;;1.60;;
37771;SDS011;23610;59.380;24.642;2023-04-19T07:08:25;9.35;;;3.47;;
37771;SDS011;23610;59.380;24.642;2023-04-19T07:13:39;10.13;;;2.50;;
37771;SDS011;23610;59.380;24.642;2023-04-19T07:18:41;1.77;;;1.20;;
37771;SDS011;23610;59.380;24.642;2023-04-19T07:23:44;2.95;;;1.30;;
37771;SDS011;23610;59.380;24.642;2023-04-19T07:28:47;3.67;;;1.30;;
37771;SDS011;23610;59.380;24.642;2023-04-19T07:33:50;11.05;;;1.67;;
37771;SDS011;23610;59.380;24.642;2023-04-19T07:38:53;4.40;;;1.02;;
37771;SDS011;23610;59.380;24.642;2023-04-19T07:43:56;3.28;;;1.05;;
37771;SDS011;23610;59.380;24.642;2023-04-19T07:48:59;3.95;;;1.75;;
37771;SDS011;23610;59.380;24.642;2023-04-19T07:54:01;0.95;;;0.82;;
37771;SDS011;23610;59.380;24.642;2023-04-19T07:59:04;9.70;;;1.52;;
37771;SDS011;23610;59.380;24.642;2023-04-19T08:04:09;4.43;;;1.65;;
37771;SDS011;23610;59.380;24.642;2023-04-19T08:09:12;4.85;;;1.25;;
37771;SDS011;23610;59.380;24.642;2023-04-19T08:14:15;7.15;;;1.30;;
37771;SDS011;23610;59.380;24.642;2023-04-19T08:19:35;4.40;;;1.30;;
37771;SDS011;23610;59.380;24.642;2023-04-19T08:24:38;4.05;;;2.63;;
37771;SDS011;23610;59.380;24.642;2023-04-19T08:29:41;3.33;;;1.92;;
37771;SDS011;23610;59.380;24.642;2023-04-19T08:34:43;3.80;;;1.17;;
37771;SDS011;23610;59.380;24.642;2023-04-19T08:39:46;5.38;;;1.23;;
37771;SDS011;23610;59.380;24.642;2023-04-19T08:44:49;1.52;;;1.17;;
37771;SDS011;23610;59.380;24.642;2023-04-19T08:49:56;4.43;;;1.25;;
37771;SDS011;23610;59.380;24.642;2023-04-19T08:55:21;5.97;;;0.95;;
37771;SDS011;23610;59.380;24.642;2023-04-19T09:00:23;1.65;;;1.00;;
37771;SDS011;23610;59.380;24.642;2023-04-19T09:05:26;2.08;;;0.98;;
37771;SDS011;23610;59.380;24.642;2023-04-19T09:10:29;6.00;;;1.35;;
37771;SDS011;23610;59.380;24.642;2023-04-19T09:15:35;6.85;;;1.63;;
37771;SDS011;23610;59.380;24.642;2023-04-19T09:20:40;2.58;;;1.10;;
37771;SDS011;23610;59.380;24.642;2023-04-19T09:25:52;1.25;;;1.00;;
37771;SDS011;23610;59.380;24.642;2023-04-19T09:31:11;1.70;;;0.90;;
37771;SDS011;23610;59.380;24.642;2023-04-19T09:36:34;3.30;;;1.05;;
37771;SDS011;23610;59.380;24.642;2023-04-19T09:41:52;2.78;;;1.15;;
37771;SDS011;23610;59.380;24.642;2023-04-19T09:46:55;3.88;;;1.10;;
37771;SDS011;23610;59.380;24.642;2023-04-19T09:51:58;0.95;;;0.90;;
37771;SDS011;23610;59.380;24.642;2023-04-19T09:57:01;6.35;;;1.35;;
37771;SDS011;23610;59.380;24.642;2023-04-19T10:02:04;1.42;;;0.90;;
37771;SDS011;23610;59.380;24.642;2023-04-19T10:07:08;11.70;;;1.50;;
37771;SDS011;23610;59.380;24.642;2023-04-19T10:12:30;1.20;;;1.02;;
37771;SDS011;23610;59.380;24.642;2023-04-19T10:17:36;6.72;;;1.10;;
37771;SDS011;23610;59.380;24.642;2023-04-19T10:22:40;3.80;;;1.02;;
37771;SDS011;23610;59.380;24.642;2023-04-19T10:27:43;6.18;;;1.27;;
37771;SDS011;23610;59.380;24.642;2023-04-19T10:32:51;3.17;;;1.00;;
37771;SDS011;23610;59.380;24.642;2023-04-19T11:04:17;4.97;;;1.03;;
37771;SDS011;23610;59.380;24.642;2023-04-19T11:09:27;8.38;;;1.40;;
37771;SDS011;23610;59.380;24.642;2023-04-19T11:14:43;1.80;;;1.10;;
37771;SDS011;23610;59.380;24.642;2023-04-19T11:25:05;6.15;;;1.25;;
37771;SDS011;23610;59.380;24.642;2023-04-19T11:30:27;3.97;;;1.10;;
37771;SDS011;23610;59.380;24.642;2023-04-19T11:35:31;4.40;;;0.98;;
37771;SDS011;23610;59.380;24.642;2023-04-19T11:40:34;2.50;;;1.27;;
37771;SDS011;23610;59.380;24.642;2023-04-19T11:45:38;6.65;;;0.93;;
37771;SDS011;23610;59.380;24.642;2023-04-19T11:50:41;1.15;;;0.95;;
37771;SDS011;23610;59.380;24.642;2023-04-19T11:55:46;2.92;;;0.93;;
37771;SDS011;23610;59.380;24.642;2023-04-19T12:00:54;0.98;;;0.90;;
37771;SDS011;23610;59.380;24.642;2023-04-19T12:06:03;1.20;;;0.90;;
37771;SDS011;23610;59.380;24.642;2023-04-19T12:11:09;0.95;;;0.70;;
37771;SDS011;23610;59.380;24.642;2023-04-19T12:16:12;5.22;;;0.93;;
37771;SDS011;23610;59.380;24.642;2023-04-19T12:26:28;13.68;;;1.88;;
37771;SDS011;23610;59.380;24.642;2023-04-19T12:31:31;14.10;;;4.78;;
37771;SDS011;23610;59.380;24.642;2023-04-19T12:36:34;2.10;;;2.00;;
37771;SDS011;23610;59.380;24.642;2023-04-19T12:41:36;1.92;;;1.00;;
37771;SDS011;23610;59.380;24.642;2023-04-19T12:46:39;5.10;;;1.30;;
37771;SDS011;23610;59.380;24.642;2023-04-19T12:51:42;5.30;;;1.42;;
37771;SDS011;23610;59.380;24.642;2023-04-19T12:56:44;5.57;;;1.08;;
37771;SDS011;23610;59.380;24.642;2023-04-19T13:01:47;3.25;;;1.45;;
37771;SDS011;23610;59.380;24.642;2023-04-19T13:06:50;6.00;;;1.20;;
37771;SDS011;23610;59.380;24.642;2023-04-19T13:11:56;1.90;;;0.90;;
37771;SDS011;23610;59.380;24.642;2023-04-19T13:16:59;2.53;;;0.75;;
37771;SDS011;23610;59.380;24.642;2023-04-19T13:22:01;2.40;;;1.25;;
37771;SDS011;23610;59.380;24.642;2023-04-19T13:27:04;4.18;;;0.85;;
37771;SDS011;23610;59.380;24.642;2023-04-19T13:32:09;3.40;;;0.85;;
37771;SDS011;23610;59.380;24.642;2023-04-19T13:37:13;2.28;;;0.90;;
37771;SDS011;23610;59.380;24.642;2023-04-19T13:42:16;1.10;;;0.68;;
37771;SDS011;23610;59.380;24.642;2023-04-19T13:47:19;2.67;;;0.90;;
37771;SDS011;23610;59.380;24.642;2023-04-19T13:52:22;0.93;;;0.80;;
37771;SDS011;23610;59.380;24.642;2023-04-19T13:57:25;3.08;;;1.55;;
37771;SDS011;23610;59.380;24.642;2023-04-19T14:02:27;5.10;;;1.08;;
37771;SDS011;23610;59.380;24.642;2023-04-19T14:07:30;5.05;;;1.88;;
37771;SDS011;23610;59.380;24.642;2023-04-19T14:12:33;1.40;;;1.10;;
37771;SDS011;23610;59.380;24.642;2023-04-19T14:17:35;2.97;;;1.30;;
37771;SDS011;23610;59.380;24.642;2023-04-19T14:22:38;4.18;;;1.48;;
37771;SDS011;23610;59.380;24.642;2023-04-19T14:27:41;3.28;;;0.90;;
37771;SDS011;23610;59.380;24.642;2023-04-19T14:32:44;1.92;;;1.08;;
37771;SDS011;23610;59.380;24.642;2023-04-19T14:37:46;5.40;;;1.13;;
37771;SDS011;23610;59.380;24.642;2023-04-19T14:42:49;3.92;;;1.50;;
37771;SDS011;23610;59.380;24.642;2023-04-19T14:47:52;2.65;;;2.20;;
37771;SDS011;23610;59.380;24.642;2023-04-19T14:52:55;3.47;;;2.85;;
37771;SDS011;23610;59.380;24.642;2023-04-19T14:57:57;5.18;;;1.05;;
37771;SDS011;23610;59.380;24.642;2023-04-19T15:03:00;4.82;;;1.20;;
37771;SDS011;23610;59.380;24.642;2023-04-19T15:08:03;1.42;;;0.70;;
37771;SDS011;23610;59.380;24.642;2023-04-19T15:13:09;2.47;;;1.15;;
37771;SDS011;23610;59.380;24.642;2023-04-19T15:18:12;0.73;;;0.73;;
37771;SDS011;23610;59.380;24.642;2023-04-19T15:23:14;3.00;;;0.75;;
37771;SDS011;23610;59.380;24.642;2023-04-19T15:28:17;1.60;;;1.02;;
37771;SDS011;23610;59.380;24.642;2023-04-19T15:33:19;4.72;;;1.17;;
37771;SDS011;23610;59.380;24.642;2023-04-19T15:38:23;1.23;;;1.13;;
37771;SDS011;23610;59.380;24.642;2023-04-19T15:43:27;2.10;;;1.45;;
37771;SDS011;23610;59.380;24.642;2023-04-19T15:48:30;1.40;;;1.17;;
37771;SDS011;23610;59.380;24.642;2023-04-19T15:53:33;1.92;;;1.08;;
37771;SDS011;23610;59.380;24.642;2023-04-19T15:58:38;2.83;;;1.67;;
37771;SDS011;23610;59.380;24.642;2023-04-19T16:03:42;1.17;;;1.05;;
37771;SDS011;23610;59.380;24.642;2023-04-19T16:08:46;3.83;;;1.98;;
37771;SDS011;23610;59.380;24.642;2023-04-19T16:13:48;8.60;;;1.83;;
37771;SDS011;23610;59.380;24.642;2023-04-19T16:18:51;2.10;;;1.40;;
37771;SDS011;23610;59.380;24.642;2023-04-19T16:23:54;2.83;;;1.75;;
37771;SDS011;23610;59.380;24.642;2023-04-19T16:28:57;4.93;;;1.38;;
37771;SDS011;23610;59.380;24.642;2023-04-19T16:33:59;3.88;;;1.35;;
37771;SDS011;23610;59.380;24.642;2023-04-19T16:39:02;3.80;;;1.75;;
37771;SDS011;23610;59.380;24.642;2023-04-19T16:44:05;3.90;;;1.10;;
37771;SDS011;23610;59.380;24.642;2023-04-19T16:49:28;3.60;;;1.88;;
37771;SDS011;23610;59.380;24.642;2023-04-19T16:54:31;5.68;;;1.60;;
37771;SDS011;23610;59.380;24.642;2023-04-19T16:59:33;3.33;;;1.52;;
37771;SDS011;23610;59.380;24.642;2023-04-19T17:04:39;3.13;;;2.05;;
37771;SDS011;23610;59.380;24.642;2023-04-19T17:09:42;2.08;;;1.20;;
37771;SDS011;23610;59.380;24.642;2023-04-19T17:14:45;3.58;;;2.00;;
37771;SDS011;23610;59.380;24.642;2023-04-19T17:19:48;5.55;;;1.55;;
37771;SDS011;23610;59.380;24.642;2023-04-19T17:24:50;2.22;;;1.38;;
37771;SDS011;23610;59.380;24.642;2023-04-19T17:29:56;2.03;;;1.40;;
37771;SDS011;23610;59.380;24.642;2023-04-19T17:34:58;5.20;;;2.30;;
37771;SDS011;23610;59.380;24.642;2023-04-19T17:40:01;4.15;;;2.60;;
37771;SDS011;23610;59.380;24.642;2023-04-19T17:45:05;2.78;;;1.17;;
37771;SDS011;23610;59.380;24.642;2023-04-19T17:50:11;5.53;;;1.35;;
37771;SDS011;23610;59.380;24.642;2023-04-19T17:55:14;6.38;;;1.67;;
37771;SDS011;23610;59.380;24.642;2023-04-19T18:00:17;12.45;;;1.77;;
37771;SDS011;23610;59.380;24.642;2023-04-19T18:05:21;3.83;;;1.40;;
37771;SDS011;23610;59.380;24.642;2023-04-19T18:10:24;6.00;;;2.05;;
37771;SDS011;23610;59.380;24.642;2023-04-19T18:15:27;3.60;;;1.55;;
37771;SDS011;23610;59.380;24.642;2023-04-19T18:20:30;9.65;;;2.83;;
37771;SDS011;23610;59.380;24.642;2023-04-19T18:25:32;5.57;;;2.67;;
37771;SDS011;23610;59.380;24.642;2023-04-19T18:30:37;11.98;;;1.83;;
37771;SDS011;23610;59.380;24.642;2023-04-19T18:35:40;8.23;;;1.73;;
37771;SDS011;23610;59.380;24.642;2023-04-19T18:40:42;6.47;;;3.42;;
37771;SDS011;23610;59.380;24.642;2023-04-19T18:45:51;4.88;;;3.17;;
37771;SDS011;23610;59.380;24.642;2023-04-19T18:50:55;7.22;;;2.90;;
37771;SDS011;23610;59.380;24.642;2023-04-19T18:56:00;10.90;;;2.53;;
37771;SDS011;23610;59.380;24.642;2023-04-19T19:01:04;12.85;;;4.40;;
37771;SDS011;23610;59.380;24.642;2023-04-19T19:06:06;9.45;;;3.47;;
37771;SDS011;23610;59.380;24.642;2023-04-19T19:11:10;11.02;;;3.20;;
37771;SDS011;23610;59.380;24.642;2023-04-19T19:16:32;8.20;;;3.63;;
37771;SDS011;23610;59.380;24.642;2023-04-19T19:21:38;7.88;;;3.05;;
37771;SDS011;23610;59.380;24.642;2023-04-19T19:26:40;11.68;;;3.90;;
37771;SDS011;23610;59.380;24.642;2023-04-19T19:31:43;10.57;;;3.50;;
37771;SDS011;23610;59.380;24.642;2023-04-19T19:36:46;4.00;;;2.53;;
37771;SDS011;23610;59.380;24.642;2023-04-19T19:41:48;8.95;;;2.13;;
37771;SDS011;23610;59.380;24.642;2023-04-19T19:47:06;4.57;;;2.70;;
37771;SDS011;23610;59.380;24.642;2023-04-19T19:57:15;8.35;;;4.60;;
37771;SDS011;23610;59.380;24.642;2023-04-19T20:02:39;29.40;;;14.80;;
37771;SDS011;23610;59.380;24.642;2023-04-19T20:08:06;11.48;;;6.50;;
37771;SDS011;23610;59.380;24.642;2023-04-19T20:13:12;5.95;;;3.70;;
37771;SDS011;23610;59.380;24.642;2023-04-19T20:18:15;2.42;;;2.05;;
37771;SDS011;23610;59.380;24.642;2023-04-19T20:23:18;5.32;;;3.60;;
37771;SDS011;23610;59.380;24.642;2023-04-19T20:28:22;6.80;;;2.43;;
37771;SDS011;23610;59.380;24.642;2023-04-19T20:33:24;4.82;;;3.42;;
37771;SDS011;23610;59.380;24.642;2023-04-19T20:38:28;9.75;;;4.63;;
37771;SDS011;23610;59.380;24.642;2023-04-19T20:43:32;8.25;;;3.63;;
37771;SDS011;23610;59.380;24.642;2023-04-19T20:48:35;17.70;;;4.53;;
37771;SDS011;23610;59.380;24.642;2023-04-19T20:53:38;10.48;;;4.32;;
37771;SDS011;23610;59.380;24.642;2023-04-19T20:58:41;10.00;;;4.00;;
37771;SDS011;23610;59.380;24.642;2023-04-19T21:03:44;6.30;;;3.85;;
37771;SDS011;23610;59.380;24.642;2023-04-19T21:08:47;7.15;;;3.45;;
37771;SDS011;23610;59.380;24.642;2023-04-19T21:13:50;4.65;;;3.20;;
37771;SDS011;23610;59.380;24.642;2023-04-19T21:18:52;5.85;;;2.90;;
37771;SDS011;23610;59.380;24.642;2023-04-19T21:23:55;7.20;;;3.38;;
37771;SDS011;23610;59.380;24.642;2023-04-19T21:28:58;4.82;;;3.28;;
37771;SDS011;23610;59.380;24.642;2023-04-19T21:34:00;5.05;;;2.67;;
37771;SDS011;23610;59.380;24.642;2023-04-19T21:39:03;7.50;;;2.88;;
37771;SDS011;23610;59.380;24.642;2023-04-19T21:44:06;7.68;;;3.38;;
37771;SDS011;23610;59.380;24.642;2023-04-19T21:49:09;6.97;;;2.65;;
37771;SDS011;23610;59.380;24.642;2023-04-19T21:54:11;5.93;;;2.97;;
37771;SDS011;23610;59.380;24.642;2023-04-19T21:59:33;6.78;;;2.85;;
37771;SDS011;23610;59.380;24.642;2023-04-19T22:04:37;8.23;;;2.47;;
37771;SDS011;23610;59.380;24.642;2023-04-19T22:09:42;5.03;;;3.10;;
37771;SDS011;23610;59.380;24.642;2023-04-19T22:14:44;4.05;;;3.08;;
37771;SDS011;23610;59.380;24.642;2023-04-19T22:19:47;4.15;;;2.35;;
37771;SDS011;23610;59.380;24.642;2023-04-19T22:24:50;3.08;;;2.10;;
37771;SDS011;23610;59.380;24.642;2023-04-19T22:29:58;3.83;;;2.05;;
37771;SDS011;23610;59.380;24.642;2023-04-19T22:35:01;3.20;;;2.25;;
37771;SDS011;23610;59.380;24.642;2023-04-19T22:40:04;5.43;;;2.30;;
37771;SDS011;23610;59.380;24.642;2023-04-19T22:45:08;4.07;;;2.33;;
37771;SDS011;23610;59.380;24.642;2023-04-19T22:50:11;3.00;;;1.90;;
37771;SDS011;23610;59.380;24.642;2023-04-19T22:55:14;5.95;;;2.08;;
37771;SDS011;23610;59.380;24.642;2023-04-19T23:00:17;3.28;;;1.65;;
37771;SDS011;23610;59.380;24.642;2023-04-19T23:05:20;2.80;;;2.22;;
37771;SDS011;23610;59.380;24.642;2023-04-19T23:10:26;3.08;;;1.92;;
37771;SDS011;23610;59.380;24.642;2023-04-19T23:15:29;4.70;;;2.65;;
37771;SDS011;23610;59.380;24.642;2023-04-19T23:20:32;1.95;;;1.70;;
37771;SDS011;23610;59.380;24.642;2023-04-19T23:25:34;3.50;;;2.20;;
37771;SDS011;23610;59.380;24.642;2023-04-19T23:30:37;4.90;;;2.40;;
37771;SDS011;23610;59.380;24.642;2023-04-19T23:35:39;4.13;;;1.90;;
37771;SDS011;23610;59.380;24.642;2023-04-19T23:40:42;4.00;;;1.98;;
37771;SDS011;23610;59.380;24.642;2023-04-19T23:45:45;7.07;;;1.95;;
37771;SDS011;23610;59.380;24.642;2023-04-19T23:50:48;2.45;;;1.73;;
37771;SDS011;23610;59.380;24.642;2023-04-19T23:55:51;5.85;;;1.98;;
